»·PEaware :: SKW393 KLAS-KSNA

SKW393 :: KLAS-KSNA

FLIGHT INFORMATION

Flight Status: Arrived
Operator:
SkyWest Airlines
More flights by this operator :: More flights under this callsign
Pilot: Jamie M. (16133)
Aircraft: CANADAIR CL-600 CRJ-700
(CRJ7)
More flights by this aircraft type
Origin: KLAS McCarran Intl
United States
Destination: KSNA John Wayne-Orange Co
United States
More flights between these airports :: More routes between these airports
Route: BOACH8 WHIGG FEYLA DSNEE2
File this flight plan on PilotEdge
Remarks: PBN / D1 DOF / 171228 REG / N353JM OPR / SKW PER / C RMK / TCAS SIMBRIEF
Altitude:
(Current/Filed)
28,000ft
Speed:
(Current/Filed)
379kts
Departed: 28-Dec-17 04:20 PM
Arrived: 28-Dec-17 05:06 PM
Distance/Time
Traveled:
196nm/0:46
Distance/Time
To Go:
Arrived

Flight Plot

Page will automatically refresh every two minutes.

Flight plan parsing failed; only flown route is shown


Map Options




Map Legend


Flown Route
Filed Route
Departure Airport
Arrival Airport
Navaid (VOR, NDB)
Fix

Horizontal Profiles

Position Reports

Time Latitude Longitude Heading Altitude Ground
Speed
28-Dec-17 15:30 36.081137 -115.138061 319 2122ft 0kts
28-Dec-17 15:31 36.081137 -115.138061 319 2122ft 0kts
28-Dec-17 15:32 36.081137 -115.138061 319 2122ft 0kts
28-Dec-17 15:33 36.081137 -115.138061 319 2122ft 0kts
28-Dec-17 15:34 36.081137 -115.138061 319 2122ft 0kts
28-Dec-17 15:35 36.081137 -115.138061 319 2122ft 0kts
28-Dec-17 15:36 36.081137 -115.138061 319 2122ft 0kts
28-Dec-17 15:37 36.081137 -115.138061 319 2122ft 0kts
28-Dec-17 15:38 36.081137 -115.138061 319 2122ft 0kts
28-Dec-17 15:39 36.081137 -115.138061 319 2122ft 0kts
28-Dec-17 15:40 36.081137 -115.138061 319 2122ft 0kts
28-Dec-17 15:41 36.081137 -115.138061 319 2118ft 0kts
28-Dec-17 15:42 36.081137 -115.138061 319 2122ft 0kts
28-Dec-17 15:43 36.081137 -115.138061 319 2122ft 0kts
28-Dec-17 15:44 36.081137 -115.138061 319 2122ft 0kts
28-Dec-17 15:45 36.081137 -115.138061 319 2122ft 0kts
28-Dec-17 15:46 36.081137 -115.138061 319 2122ft 0kts
28-Dec-17 15:47 36.081137 -115.138061 319 2122ft 0kts
28-Dec-17 15:48 36.081137 -115.138061 319 2122ft 0kts
28-Dec-17 15:49 36.081137 -115.138061 319 2122ft 0kts
28-Dec-17 15:50 36.081137 -115.138061 319 2122ft 0kts
28-Dec-17 15:51 36.081137 -115.138061 319 2122ft 0kts
28-Dec-17 15:52 36.081137 -115.138061 319 2122ft 0kts
28-Dec-17 15:53 36.081137 -115.138061 319 2122ft 0kts
28-Dec-17 15:54 36.081137 -115.138061 319 2122ft 0kts
28-Dec-17 15:55 36.081137 -115.138061 319 2122ft 0kts
28-Dec-17 15:56 36.081137 -115.138061 319 2122ft 0kts
28-Dec-17 15:57 36.081137 -115.138061 319 2122ft 0kts
28-Dec-17 15:58 36.081137 -115.138061 319 2122ft 0kts
28-Dec-17 15:59 36.081137 -115.138061 319 2122ft 0kts
28-Dec-17 16:00 36.081137 -115.138061 319 2122ft 0kts
28-Dec-17 16:01 36.081137 -115.138061 319 2122ft 0kts
28-Dec-17 16:02 36.081137 -115.138061 319 2122ft 0kts
28-Dec-17 16:03 36.081137 -115.138061 319 2122ft 0kts
28-Dec-17 16:04 36.081137 -115.138061 319 2122ft 0kts
28-Dec-17 16:05 36.081137 -115.138061 319 2122ft 0kts
28-Dec-17 16:06 36.081137 -115.138061 319 2122ft 0kts
28-Dec-17 16:07 36.081137 -115.138061 319 2122ft 0kts
28-Dec-17 16:08 36.081137 -115.138061 319 2122ft 0kts
28-Dec-17 16:09 36.081137 -115.138061 319 2122ft 0kts
28-Dec-17 16:10 36.081021 -115.137941 319 2122ft 2kts
28-Dec-17 16:11 36.080522 -115.137425 319 2122ft 2kts
28-Dec-17 16:12 36.080447 -115.137348 319 2122ft 0kts
28-Dec-17 16:13 36.080447 -115.137348 319 2122ft 0kts
28-Dec-17 16:14 36.080447 -115.137348 319 2122ft 0kts
28-Dec-17 16:15 36.080447 -115.137348 319 2122ft 0kts
28-Dec-17 16:16 36.080447 -115.137348 319 2122ft 0kts
28-Dec-17 16:17 36.080447 -115.137348 319 2122ft 0kts
28-Dec-17 16:18 36.080404 -115.137669 208 2122ft 7kts
28-Dec-17 16:19 36.079120 -115.134454 74 2122ft 16kts
28-Dec-17 16:20 36.078217 -115.132015 90 2122ft 12kts
28-Dec-17 16:21 36.078269 -115.123826 92 2122ft 20kts
28-Dec-17 16:22 36.077254 -115.121331 171 2122ft 0kts
28-Dec-17 16:23 36.077253 -115.121331 171 2122ft 0kts
28-Dec-17 16:24 36.077251 -115.121331 171 2122ft 0kts
28-Dec-17 16:25 36.077143 -115.121313 172 2122ft 4kts
28-Dec-17 16:26 36.076351 -115.123731 269 2122ft 57kts
28-Dec-17 16:27 36.077537 -115.177938 274 4347ft 190kts
28-Dec-17 16:28 36.080084 -115.233134 265 7484ft 170kts
28-Dec-17 16:29 36.034085 -115.279777 193 6926ft 286kts
28-Dec-17 16:30 35.962316 -115.306588 205 7010ft 254kts
28-Dec-17 16:31 35.896127 -115.313711 180 7250ft 220kts
28-Dec-17 16:32 35.833918 -115.313577 174 9412ft 238kts
28-Dec-17 16:33 35.763917 -115.304518 174 11737ft 267kts
28-Dec-17 16:34 35.681452 -115.297642 190 12513ft 346kts
28-Dec-17 16:35 35.586790 -115.340899 201 12543ft 351kts
28-Dec-17 16:36 35.496014 -115.393205 227 14218ft 374kts
28-Dec-17 16:37 35.479992 -115.510179 269 17287ft 357kts
28-Dec-17 16:38 35.438255 -115.629108 246 18845ft 407kts
28-Dec-17 16:39 35.368086 -115.736243 225 21840ft 407kts
28-Dec-17 16:40 35.280329 -115.823842 220 22981ft 404kts
28-Dec-17 16:41 35.191798 -115.909198 221 22988ft 407kts
28-Dec-17 16:42 35.101349 -115.996047 220 23266ft 416kts
28-Dec-17 16:43 35.008706 -116.084237 220 23651ft 427kts
28-Dec-17 16:44 34.958499 -116.210371 259 25398ft 424kts
28-Dec-17 16:45 34.894121 -116.329334 227 27598ft 431kts
28-Dec-17 16:46 34.805843 -116.430756 228 27994ft 417kts
28-Dec-17 16:47 34.728439 -116.530315 229 25638ft 416kts
28-Dec-17 16:48 34.644627 -116.628118 219 25298ft 421kts
28-Dec-17 16:49 34.554021 -116.710351 220 23397ft 395kts
28-Dec-17 16:50 34.471714 -116.796069 226 20746ft 368kts
28-Dec-17 16:51 34.399129 -116.881922 225 18653ft 369kts
28-Dec-17 16:52 34.325844 -116.967263 227 16414ft 359kts
28-Dec-17 16:53 34.256487 -117.049782 227 15128ft 325kts
28-Dec-17 16:54 34.176631 -117.100519 207 12569ft 338kts
28-Dec-17 16:55 34.091711 -117.145948 202 12196ft 339kts
28-Dec-17 16:56 34.007266 -117.190348 206 11813ft 321kts
28-Dec-17 16:57 33.946305 -117.263664 230 11149ft 305kts
28-Dec-17 16:58 33.896887 -117.337097 228 10046ft 263kts
28-Dec-17 16:59 33.849762 -117.402932 229 8478ft 254kts
28-Dec-17 17:00 33.809607 -117.467958 247 7881ft 241kts
28-Dec-17 17:01 33.771671 -117.541173 235 7803ft 285kts
28-Dec-17 17:02 33.763997 -117.636582 272 6765ft 272kts
28-Dec-17 17:03 33.766872 -117.715667 273 5849ft 204kts
28-Dec-17 17:04 33.789590 -117.770085 301 5203ft 203kts
28-Dec-17 17:05 33.832928 -117.803692 3 3883ft 185kts
28-Dec-17 17:06 33.879664 -117.794577 49 3844ft 175kts
28-Dec-17 17:07 33.859956 -117.750146 181 3490ft 205kts
28-Dec-17 17:08 33.812208 -117.778071 234 2862ft 183kts
28-Dec-17 17:09 33.775246 -117.808208 206 2801ft 148kts
28-Dec-17 17:10 33.733919 -117.831938 205 1838ft 163kts
28-Dec-17 17:11 33.696492 -117.855551 210 528ft 141kts
28-Dec-17 17:12 33.670923 -117.871891 211 63ft 23kts
28-Dec-17 17:13 33.670141 -117.873621 325 63ft 0kts
28-Dec-17 17:14 33.670143 -117.873622 325 63ft 0kts
28-Dec-17 17:15 33.671965 -117.872669 27 63ft 17kts
28-Dec-17 17:16 33.675282 -117.870631 27 63ft 12kts
28-Dec-17 17:17 33.677918 -117.868076 118 63ft 12kts
28-Dec-17 17:18 33.677285 -117.864493 54 63ft 17kts
28-Dec-17 17:19 33.678059 -117.863146 113 63ft 0kts
28-Dec-17 17:20 33.678059 -117.863145 113 63ft 0kts
28-Dec-17 17:21 33.678059 -117.863145 113 63ft 0kts
28-Dec-17 17:22 33.678059 -117.863145 113 63ft 0kts
28-Dec-17 17:23 33.678059 -117.863145 113 63ft 0kts
28-Dec-17 17:24 33.678059 -117.863145 113 63ft 0kts
28-Dec-17 17:25 33.678059 -117.863145 113 63ft 0kts
28-Dec-17 17:26 33.678059 -117.863145 113 63ft 0kts

Navigation Log

Ident Type
Flight plan parsing failed, navigation log unavailable